createdAt,value
2023-01-10T00:06:35.457Z,4.40
2023-01-10T00:14:40.903Z,4.53
2023-01-10T00:22:49.545Z,4.40
2023-01-10T00:31:04.554Z,4.32
2023-01-10T00:39:15.404Z,4.28
2023-01-10T00:47:20.893Z,3.95
2023-01-10T00:55:28.943Z,4.85
2023-01-10T01:03:34.309Z,3.80
2023-01-10T01:11:44.582Z,4.03
2023-01-10T01:19:52.114Z,3.72
2023-01-10T01:28:00.133Z,4.22
2023-01-10T01:36:05.509Z,3.45
2023-01-10T01:44:18.538Z,3.38
2023-01-10T01:52:37.456Z,3.37
2023-01-10T02:00:45.747Z,3.60
2023-01-10T02:08:56.598Z,3.08
2023-01-10T02:17:04.527Z,3.60
2023-01-10T02:25:57.341Z,3.53
2023-01-10T02:34:11.213Z,3.25
2023-01-10T02:42:22.243Z,3.35
2023-01-10T02:50:48.589Z,3.65
2023-01-10T02:59:23.468Z,3.25
2023-01-10T03:07:37.383Z,3.10
2023-01-10T03:15:45.445Z,2.75
2023-01-10T03:23:59.400Z,2.70
2023-01-10T03:32:10.375Z,3.10
2023-01-10T03:40:30.759Z,3.00
2023-01-10T03:48:44.460Z,3.10
2023-01-10T03:56:54.052Z,2.97
2023-01-10T04:05:02.542Z,3.15
2023-01-10T04:13:10.802Z,3.10
2023-01-10T04:21:16.055Z,3.22
2023-01-10T04:29:24.149Z,2.65
2023-01-10T04:37:29.636Z,3.35
2023-01-10T04:45:37.667Z,2.97
2023-01-10T04:53:43.359Z,3.47
2023-01-10T05:01:51.668Z,3.65
2023-01-10T05:09:57.228Z,3.33
2023-01-10T05:18:05.277Z,3.35
2023-01-10T05:26:12.143Z,4.07
2023-01-10T05:34:20.134Z,3.63
2023-01-10T05:42:25.872Z,3.75
2023-01-10T05:50:35.112Z,3.92
2023-01-10T05:58:40.791Z,3.67
2023-01-10T06:06:52.202Z,4.05
2023-01-10T06:14:57.592Z,3.97
2023-01-10T06:23:05.950Z,4.05
2023-01-10T06:31:11.556Z,4.00
2023-01-10T06:39:19.588Z,3.85
2023-01-10T06:47:26.690Z,4.13
2023-01-10T06:55:39.172Z,3.15
2023-01-10T07:03:44.835Z,3.47
2023-01-10T07:11:54.548Z,3.25
2023-01-10T07:19:59.845Z,2.97
2023-01-10T07:28:11.239Z,3.10
2023-01-10T07:36:17.437Z,3.17
2023-01-10T07:44:25.817Z,2.92
2023-01-10T07:52:31.231Z,3.50
2023-01-10T08:00:42.013Z,3.28
2023-01-10T08:08:50.048Z,3.00
2023-01-10T08:16:58.245Z,3.80
2023-01-10T08:25:05.409Z,3.38
2023-01-10T08:33:19.373Z,3.13
2023-01-10T08:41:25.891Z,3.80
2023-01-10T08:49:35.239Z,3.50
2023-01-10T08:57:40.937Z,3.70
2023-01-10T09:05:49.823Z,3.67
2023-01-10T09:13:57.528Z,3.17
2023-01-10T09:22:07.029Z,2.22
2023-01-10T09:30:14.167Z,2.67
2023-01-10T09:38:23.173Z,7.97
2023-01-10T09:46:40.998Z,6.57
2023-01-10T09:54:53.065Z,3.30
2023-01-10T10:02:59.106Z,2.47
2023-01-10T10:11:34.254Z,7.32
2023-01-10T10:19:57.951Z,2.33
2023-01-10T10:28:22.648Z,4.97
2023-01-10T10:36:34.100Z,10.95
2023-01-10T10:44:46.673Z,11.27
2023-01-10T10:52:52.829Z,12.13
2023-01-10T11:01:02.125Z,9.57
2023-01-10T11:09:09.669Z,12.05
2023-01-10T11:17:27.252Z,14.50
2023-01-10T11:25:33.392Z,11.95
2023-01-10T11:33:42.071Z,12.20
2023-01-10T11:41:49.417Z,10.80
2023-01-10T11:49:59.010Z,14.35
2023-01-10T11:58:08.783Z,12.18
2023-01-10T12:06:20.624Z,12.30
2023-01-10T12:14:25.949Z,14.02
2023-01-10T12:22:37.290Z,11.88
2023-01-10T12:30:50.165Z,11.02
2023-01-10T12:39:06.606Z,12.13
2023-01-10T12:47:22.384Z,11.02
2023-01-10T12:55:33.992Z,11.98
2023-01-10T13:03:40.488Z,11.20
2023-01-10T13:11:55.829Z,12.30
2023-01-10T13:20:37.755Z,11.90
2023-01-10T13:28:57.959Z,12.82
2023-01-10T13:37:07.892Z,12.02
2023-01-10T13:45:36.575Z,12.52
2023-01-10T13:54:01.981Z,11.85
2023-01-10T14:02:33.088Z,12.55
2023-01-10T14:10:38.450Z,12.82
2023-01-10T14:18:49.704Z,15.95
2023-01-10T14:26:57.576Z,12.57
2023-01-10T14:35:12.296Z,14.05
2023-01-10T14:43:21.236Z,14.05
2023-01-10T14:51:32.651Z,13.43
2023-01-10T14:59:39.956Z,18.27
2023-01-10T15:07:51.798Z,13.73
2023-01-10T15:15:57.735Z,16.05
2023-01-10T15:24:33.239Z,16.00
2023-01-10T15:32:42.685Z,15.38
2023-01-10T15:40:58.862Z,15.73
2023-01-10T15:49:09.184Z,15.55
2023-01-10T15:57:29.794Z,16.50
2023-01-10T16:05:35.169Z,17.65
2023-01-10T16:13:43.282Z,20.08
2023-01-10T16:21:57.755Z,20.77
2023-01-10T16:30:05.896Z,21.30
2023-01-10T16:38:13.871Z,19.52
2023-01-10T16:46:22.662Z,22.60
2023-01-10T16:54:28.524Z,23.20
2023-01-10T17:02:36.629Z,21.50
2023-01-10T17:10:43.497Z,24.20
2023-01-10T17:18:51.736Z,23.83
2023-01-10T17:26:57.250Z,19.65
2023-01-10T17:35:05.313Z,18.92
2023-01-10T17:43:11.268Z,19.73
2023-01-10T17:51:19.330Z,18.38
2023-01-10T17:59:26.581Z,17.55
2023-01-10T18:07:34.699Z,18.58
2023-01-10T18:15:52.568Z,17.00
2023-01-10T18:24:02.035Z,19.92
2023-01-10T18:32:07.803Z,16.70
2023-01-10T18:40:19.421Z,14.57
2023-01-10T18:48:26.050Z,14.27
2023-01-10T18:56:34.089Z,12.48
2023-01-10T19:04:43.954Z,11.95
2023-01-10T19:12:52.477Z,9.82
2023-01-10T19:20:57.999Z,9.65
2023-01-10T19:29:07.775Z,7.10
2023-01-10T19:37:15.504Z,6.00
2023-01-10T19:45:24.645Z,5.15
2023-01-10T19:53:33.113Z,5.13
2023-01-10T20:01:48.509Z,6.30
2023-01-10T20:09:54.107Z,5.75
2023-01-10T20:18:05.292Z,6.35
2023-01-10T20:26:17.284Z,4.68
2023-01-10T20:34:26.039Z,7.22
2023-01-10T20:42:32.655Z,6.20
2023-01-10T20:50:43.859Z,7.80
2023-01-10T20:58:50.282Z,9.30
2023-01-10T21:06:58.839Z,8.07
2023-01-10T21:15:04.448Z,7.65
2023-01-10T21:23:13.073Z,5.53
2023-01-10T21:31:21.463Z,5.15
2023-01-10T21:39:29.956Z,5.10
2023-01-10T21:47:36.496Z,4.22
2023-01-10T21:55:46.591Z,3.85
2023-01-10T22:03:52.279Z,3.50
2023-01-10T22:12:00.594Z,4.57
2023-01-10T22:20:06.179Z,4.93
2023-01-10T22:28:15.699Z,3.67
2023-01-10T22:36:22.180Z,3.22
2023-01-10T22:44:30.496Z,2.95
2023-01-10T22:52:36.002Z,2.60
2023-01-10T23:00:44.463Z,2.63
2023-01-10T23:08:50.674Z,3.33
2023-01-10T23:16:59.406Z,2.40
2023-01-10T23:25:04.774Z,2.15
2023-01-10T23:33:12.729Z,2.33
2023-01-10T23:41:21.272Z,2.28
2023-01-10T23:49:29.323Z,3.10
2023-01-10T23:57:34.587Z,2.80
